Terminal Aerodrome Forecast
Issued by NWS Greer, SC

Home | Current Version | Previous Version | Text Only | Print | Product List | Glossary On
Versions: 1 2 3 4 5 6 7 8 9 10 11 12 13 14 15 16 17 18 19 20 21 22 23 24 25 26 27 28 29
000
FTUS42 KGSP 282101 AAA
TAFCLT
TAF AMD
KCLT 282101Z 2821/2918 22008KT P6SM SCT035
      TEMPO 2821/2824 VRB15G25KT 3SM -TSRA OVC025CB
     FM290000 18006KT P6SM VCSH SCT045
     FM290300 18005KT P6SM SCT150
     FM291100 VRB02KT 3SM BR SCT005
     FM291300 17005KT P6SM SCT250=

USA.gov is the U.S. government's official web portal to all federal, state and local government web resources and services.